createdAt,value
2022-10-02T00:00:16.089Z,94192.38
2022-10-02T00:01:26.862Z,94181.44
2022-10-02T00:02:32.783Z,94193.69
2022-10-02T00:03:38.640Z,94191.94
2022-10-02T00:04:47.233Z,94197.94
2022-10-02T00:05:51.868Z,94198.75
2022-10-02T00:06:57.876Z,94207.25
2022-10-02T00:08:06.419Z,94205.22
2022-10-02T00:09:15.140Z,94197.75
2022-10-02T00:10:23.400Z,94206.69
2022-10-02T00:11:29.278Z,94211.41
2022-10-02T00:12:35.756Z,94207.66
2022-10-02T00:13:41.125Z,94207.66
2022-10-02T00:14:45.388Z,94202.38
2022-10-02T00:15:48.069Z,94198.28
2022-10-02T00:16:53.677Z,94201.94
2022-10-02T00:17:58.341Z,94200.03
2022-10-02T00:19:00.779Z,94198.13
2022-10-02T00:20:06.454Z,94210.59
2022-10-02T00:21:19.899Z,94208.59
2022-10-02T00:22:31.856Z,94210.50
2022-10-02T00:23:37.749Z,94206.56
2022-10-02T00:24:45.350Z,94207.13
2022-10-02T00:25:51.621Z,94210.84
2022-10-02T00:27:00.632Z,94205.94
2022-10-02T00:28:21.139Z,94201.63
2022-10-02T00:29:37.866Z,94204.53
2022-10-02T00:30:51.088Z,94206.72
2022-10-02T00:32:04.852Z,94197.06
2022-10-02T00:33:18.064Z,94196.69
2022-10-02T00:34:30.969Z,94199.56
2022-10-02T00:36:01.388Z,94204.63
2022-10-02T00:37:14.264Z,94203.53
2022-10-02T00:38:30.575Z,94206.97
2022-10-02T00:39:46.989Z,94204.00
2022-10-02T00:41:27.140Z,94208.06
2022-10-02T00:42:52.869Z,94211.03
2022-10-02T00:44:11.325Z,94210.00
2022-10-02T00:45:40.634Z,94212.84
2022-10-02T00:46:51.621Z,94217.19
2022-10-02T00:48:01.127Z,94214.16
2022-10-02T00:49:24.248Z,94203.88
2022-10-02T00:50:37.612Z,94195.47
2022-10-02T00:51:55.285Z,94181.31
2022-10-02T00:53:08.497Z,94189.03
2022-10-02T00:54:25.747Z,94197.94
2022-10-02T00:55:37.499Z,94199.75
2022-10-02T00:56:43.693Z,94195.19
2022-10-02T00:58:02.857Z,94193.50
2022-10-02T00:59:34.063Z,94182.66
2022-10-02T01:00:35.584Z,94174.66
2022-10-02T01:01:42.213Z,94178.19
2022-10-02T01:02:53.547Z,94187.94
2022-10-02T01:03:55.076Z,94203.97
2022-10-02T01:04:58.709Z,94203.31
2022-10-02T01:06:00.224Z,94207.69
2022-10-02T01:07:02.860Z,94204.50
2022-10-02T01:08:04.546Z,94199.69
2022-10-02T01:09:06.059Z,94204.13
2022-10-02T01:10:09.481Z,94204.84
2022-10-02T01:11:11.154Z,94199.66
2022-10-02T01:12:13.781Z,94196.28
2022-10-02T01:13:15.641Z,94202.22
2022-10-02T01:14:17.350Z,94200.09
2022-10-02T01:15:22.509Z,94199.84
2022-10-02T01:16:24.056Z,94191.00
2022-10-02T01:17:28.120Z,94192.00
2022-10-02T01:18:30.842Z,94191.44
2022-10-02T01:19:37.195Z,94189.19
2022-10-02T01:20:42.151Z,94192.00
2022-10-02T01:21:53.146Z,94198.09
2022-10-02T01:23:03.645Z,94195.28
2022-10-02T01:24:10.867Z,94200.38
2022-10-02T01:25:13.971Z,94201.94
2022-10-02T01:26:16.070Z,94208.75
2022-10-02T01:27:18.271Z,94210.84
2022-10-02T01:28:21.247Z,94206.84
2022-10-02T01:29:22.805Z,94214.75
2022-10-02T01:30:24.390Z,94213.28
2022-10-02T01:31:25.937Z,94213.00
2022-10-02T01:32:28.409Z,94218.94
2022-10-02T01:33:31.530Z,94213.13
2022-10-02T01:34:32.983Z,94220.84
2022-10-02T01:35:37.792Z,94218.63
2022-10-02T01:36:39.309Z,94219.88
2022-10-02T01:37:43.993Z,94219.34
2022-10-02T01:38:47.758Z,94218.56
2022-10-02T01:39:49.767Z,94211.47
2022-10-02T01:40:52.531Z,94211.75
2022-10-02T01:41:54.009Z,94215.38
2022-10-02T01:42:59.331Z,94210.38
2022-10-02T01:44:02.533Z,94212.66
2022-10-02T01:45:07.781Z,94210.28
2022-10-02T01:46:26.013Z,94203.38
2022-10-02T01:47:36.583Z,94206.00
2022-10-02T01:48:46.183Z,94203.84
2022-10-02T01:50:05.851Z,94200.19
2022-10-02T01:51:28.014Z,94196.56
2022-10-02T01:52:42.411Z,94198.94
2022-10-02T01:53:49.291Z,94199.56
2022-10-02T01:55:03.164Z,94201.38
2022-10-02T01:56:15.323Z,94210.00
2022-10-02T01:57:26.719Z,94199.72
2022-10-02T01:58:36.784Z,94194.38
2022-10-02T01:59:50.431Z,94202.81
2022-10-02T02:01:05.157Z,94200.47
2022-10-02T02:02:14.120Z,94203.38
2022-10-02T02:03:21.946Z,94214.13
2022-10-02T02:04:27.342Z,94215.94
2022-10-02T02:05:41.011Z,94210.28
2022-10-02T02:06:49.741Z,94219.75
2022-10-02T02:07:58.098Z,94219.59
2022-10-02T02:09:06.725Z,94214.88
2022-10-02T02:10:17.519Z,94212.25
2022-10-02T02:11:21.835Z,94202.06
2022-10-02T02:12:29.405Z,94203.88
2022-10-02T02:13:38.136Z,94201.59
2022-10-02T02:14:44.619Z,94201.03
2022-10-02T02:15:54.239Z,94208.50
2022-10-02T02:17:02.529Z,94199.94
2022-10-02T02:18:11.435Z,94202.34
2022-10-02T02:19:18.573Z,94206.69
2022-10-02T02:20:26.432Z,94199.94
2022-10-02T02:21:30.713Z,94207.25
2022-10-02T02:22:36.577Z,94200.47
2022-10-02T02:23:41.192Z,94193.22
2022-10-02T02:24:47.368Z,94198.84
2022-10-02T02:25:54.216Z,94200.50
2022-10-02T02:27:01.293Z,94212.41
2022-10-02T02:28:07.129Z,94209.78
2022-10-02T02:29:09.870Z,94216.31
2022-10-02T02:30:14.479Z,94220.34
2022-10-02T02:31:21.058Z,94212.59
2022-10-02T02:32:26.970Z,94209.31
2022-10-02T02:33:34.661Z,94210.88
2022-10-02T02:34:43.148Z,94213.44
2022-10-02T02:35:47.366Z,94214.31
2022-10-02T02:36:52.314Z,94212.88
2022-10-02T02:37:58.321Z,94219.44
2022-10-02T02:39:03.748Z,94216.44
2022-10-02T02:40:09.256Z,94208.88
2022-10-02T02:41:15.516Z,94208.78
2022-10-02T02:42:25.700Z,94210.88
2022-10-02T02:43:31.718Z,94214.75
2022-10-02T02:44:39.316Z,94219.25
2022-10-02T02:45:47.359Z,94221.06
2022-10-02T02:46:53.834Z,94225.25
2022-10-02T02:47:59.290Z,94219.50
2022-10-02T02:49:07.812Z,94223.78
2022-10-02T02:50:14.893Z,94225.31
2022-10-02T02:51:21.016Z,94225.69
2022-10-02T02:52:27.225Z,94217.75
2022-10-02T02:53:33.320Z,94218.56
2022-10-02T02:54:39.901Z,94214.56
2022-10-02T02:55:45.331Z,94217.13
2022-10-02T02:56:49.944Z,94210.19
2022-10-02T02:57:58.123Z,94211.53
2022-10-02T02:59:05.133Z,94216.00
2022-10-02T03:00:08.002Z,94220.78
2022-10-02T03:01:09.730Z,94208.75
2022-10-02T03:02:11.328Z,94205.00
2022-10-02T03:03:12.835Z,94210.06
2022-10-02T03:04:14.711Z,94206.97
2022-10-02T03:05:18.772Z,94213.44
2022-10-02T03:06:29.067Z,94211.44
2022-10-02T03:07:30.480Z,94211.25
2022-10-02T03:08:35.185Z,94219.22
2022-10-02T03:09:36.664Z,94211.09
2022-10-02T03:10:50.385Z,94210.84
2022-10-02T03:11:58.724Z,94196.81
2022-10-02T03:13:15.789Z,94196.94
2022-10-02T03:14:46.835Z,94194.22
2022-10-02T03:16:01.269Z,94202.66
2022-10-02T03:17:13.173Z,94206.94
2022-10-02T03:18:40.066Z,94204.28
2022-10-02T03:19:48.229Z,94204.13
2022-10-02T03:20:58.436Z,94205.09
2022-10-02T03:22:09.478Z,94200.75
2022-10-02T03:23:17.387Z,94205.94
2022-10-02T03:24:24.760Z,94207.38
2022-10-02T03:25:32.666Z,94212.25
2022-10-02T03:26:39.342Z,94206.41
2022-10-02T03:27:45.927Z,94204.22
2022-10-02T03:28:57.091Z,94197.53
2022-10-02T03:30:02.859Z,94207.78
2022-10-02T03:31:05.226Z,94215.28
2022-10-02T03:32:08.828Z,94215.72
2022-10-02T03:33:14.071Z,94218.72
2022-10-02T03:34:17.110Z,94217.63
2022-10-02T03:35:20.047Z,94222.88
2022-10-02T03:36:22.580Z,94216.50
2022-10-02T03:37:24.882Z,94219.59
2022-10-02T03:38:28.840Z,94214.81
2022-10-02T03:39:30.319Z,94214.13
2022-10-02T03:40:31.812Z,94211.16
2022-10-02T03:41:33.623Z,94212.09
2022-10-02T03:42:36.195Z,94216.06
2022-10-02T03:43:38.453Z,94216.72
2022-10-02T03:44:42.005Z,94217.81
2022-10-02T03:45:51.852Z,94204.78
2022-10-02T03:46:53.704Z,94213.59
2022-10-02T03:47:55.424Z,94211.81
2022-10-02T03:48:56.942Z,94202.72
2022-10-02T03:49:58.377Z,94208.13
2022-10-02T03:50:59.768Z,94210.41
2022-10-02T03:52:01.747Z,94215.13
2022-10-02T03:53:10.959Z,94210.91
2022-10-02T03:54:17.048Z,94218.69
2022-10-02T03:55:29.897Z,94204.63
2022-10-02T03:56:38.829Z,94202.88
2022-10-02T03:57:43.692Z,94202.63
2022-10-02T03:58:49.539Z,94201.22
2022-10-02T04:00:00.623Z,94206.00
2022-10-02T04:01:05.676Z,94207.69
2022-10-02T04:02:13.348Z,94208.28
2022-10-02T04:03:20.059Z,94211.59
2022-10-02T04:04:24.836Z,94210.13
2022-10-02T04:05:30.708Z,94206.34
2022-10-02T04:06:42.106Z,94208.97
2022-10-02T04:07:50.291Z,94211.91
2022-10-02T04:09:01.204Z,94216.72
2022-10-02T04:10:27.353Z,94219.53
2022-10-02T04:11:33.376Z,94215.66
2022-10-02T04:12:38.324Z,94214.06
2022-10-02T04:13:44.525Z,94213.41
2022-10-02T04:14:52.906Z,94218.44
2022-10-02T04:16:06.465Z,94218.06
2022-10-02T04:17:12.361Z,94229.38
2022-10-02T04:18:20.145Z,94220.38
2022-10-02T04:19:25.281Z,94216.38
2022-10-02T04:20:33.135Z,94209.56
2022-10-02T04:21:40.654Z,94216.66
2022-10-02T04:22:49.444Z,94215.47
2022-10-02T04:23:56.527Z,94227.16
2022-10-02T04:25:02.660Z,94222.72
2022-10-02T04:26:10.766Z,94218.13
2022-10-02T04:27:18.239Z,94216.09
2022-10-02T04:28:23.897Z,94218.25
2022-10-02T04:29:31.780Z,94224.81
2022-10-02T04:30:33.244Z,94218.34
2022-10-02T04:31:36.081Z,94227.50
2022-10-02T04:32:37.911Z,94228.53
2022-10-02T04:33:39.798Z,94237.97
2022-10-02T04:34:41.689Z,94223.00
2022-10-02T04:35:52.824Z,94224.88
2022-10-02T04:37:07.803Z,94215.38
2022-10-02T04:38:34.883Z,94220.53
2022-10-02T04:39:50.501Z,94224.47
2022-10-02T04:41:08.717Z,94226.50
2022-10-02T04:42:20.262Z,94228.66
2022-10-02T04:43:27.263Z,94234.22
2022-10-02T04:44:46.932Z,94223.56
2022-10-02T04:45:59.170Z,94221.03
2022-10-02T04:47:30.612Z,94223.19
2022-10-02T04:49:04.113Z,94229.34
2022-10-02T04:50:36.879Z,94226.06
2022-10-02T04:52:00.665Z,94226.06
2022-10-02T04:53:15.925Z,94218.78
2022-10-02T04:54:34.334Z,94233.44
2022-10-02T04:55:52.342Z,94227.78
2022-10-02T04:57:11.911Z,94230.19
2022-10-02T04:58:43.138Z,94228.56
2022-10-02T04:59:59.878Z,94224.13
2022-10-02T05:01:10.048Z,94231.03
2022-10-02T05:02:29.184Z,94238.06
2022-10-02T05:03:47.914Z,94227.03
2022-10-02T05:05:02.545Z,94225.91
2022-10-02T05:06:15.669Z,94223.50
2022-10-02T05:07:33.818Z,94223.50
2022-10-02T05:08:49.037Z,94222.69
2022-10-02T05:10:02.134Z,94224.97
2022-10-02T05:11:20.992Z,94219.31
2022-10-02T05:12:38.812Z,94214.09
2022-10-02T05:13:56.730Z,94218.59
2022-10-02T05:15:17.120Z,94221.75
2022-10-02T05:16:30.728Z,94213.75
2022-10-02T05:17:46.020Z,94224.75
2022-10-02T05:19:06.688Z,94229.91
2022-10-02T05:20:22.911Z,94220.94
2022-10-02T05:21:45.638Z,94212.50
2022-10-02T05:23:11.167Z,94208.28
2022-10-02T05:24:35.009Z,94202.66
2022-10-02T05:25:58.476Z,94197.19
2022-10-02T05:27:14.175Z,94199.09
2022-10-02T05:28:36.440Z,94203.31
2022-10-02T05:30:05.488Z,94197.44
2022-10-02T05:31:16.952Z,94188.84
2022-10-02T05:32:30.376Z,94191.47
2022-10-02T05:33:57.652Z,94195.00
2022-10-02T05:35:12.123Z,94197.06
2022-10-02T05:36:28.874Z,94196.91
2022-10-02T05:37:45.006Z,94189.50
2022-10-02T05:39:06.460Z,94193.97
2022-10-02T05:40:17.360Z,94190.59
2022-10-02T05:41:25.099Z,94193.69
2022-10-02T05:42:33.383Z,94201.28
2022-10-02T05:43:42.195Z,94196.97
2022-10-02T05:44:49.579Z,94189.03
2022-10-02T05:45:56.184Z,94189.47
2022-10-02T05:47:05.334Z,94192.56
2022-10-02T05:48:14.300Z,94188.06
2022-10-02T05:49:20.363Z,94184.25
2022-10-02T05:50:27.159Z,94185.38
2022-10-02T05:51:37.077Z,94184.63
2022-10-02T05:52:46.184Z,94188.06
2022-10-02T05:53:53.745Z,94183.69
2022-10-02T05:54:59.896Z,94178.09
2022-10-02T05:56:06.732Z,94187.84
2022-10-02T05:57:16.597Z,94187.56
2022-10-02T05:58:23.636Z,94194.06
2022-10-02T05:59:35.324Z,94183.78
2022-10-02T06:00:43.173Z,94180.16
2022-10-02T06:01:47.035Z,94177.50
2022-10-02T06:02:57.005Z,94174.44
2022-10-02T06:04:06.061Z,94187.63
2022-10-02T06:05:18.221Z,94191.63
2022-10-02T06:06:25.449Z,94183.25
2022-10-02T06:07:27.791Z,94193.69
2022-10-02T06:08:34.289Z,94196.19
2022-10-02T06:09:44.498Z,94193.75
2022-10-02T06:10:50.703Z,94202.38
2022-10-02T06:11:58.111Z,94207.78
2022-10-02T06:13:05.352Z,94198.66
2022-10-02T06:14:12.888Z,94196.28
2022-10-02T06:15:20.912Z,94197.09
2022-10-02T06:16:29.949Z,94201.41
2022-10-02T06:17:35.968Z,94196.69
2022-10-02T06:18:40.206Z,94198.59
2022-10-02T06:19:51.808Z,94197.09
2022-10-02T06:20:59.269Z,94199.63
2022-10-02T06:22:06.113Z,94204.59
2022-10-02T06:23:13.165Z,94204.81
2022-10-02T06:24:21.358Z,94208.03
2022-10-02T06:25:27.686Z,94197.41
2022-10-02T06:26:38.619Z,94200.09
2022-10-02T06:27:45.306Z,94199.66
2022-10-02T06:28:53.334Z,94205.75
2022-10-02T06:29:59.727Z,94203.88
2022-10-02T06:31:10.192Z,94199.78
2022-10-02T06:32:19.155Z,94205.41
2022-10-02T06:33:23.587Z,94208.59
2022-10-02T06:34:26.284Z,94208.22
2022-10-02T06:35:41.074Z,94210.47
2022-10-02T06:37:15.747Z,94210.72
2022-10-02T06:38:33.534Z,94205.44
2022-10-02T06:39:48.768Z,94201.59
2022-10-02T06:41:00.571Z,94209.56
2022-10-02T06:42:12.523Z,94196.81
2022-10-02T06:43:28.686Z,94192.41
2022-10-02T06:44:38.500Z,94187.69
2022-10-02T06:45:48.764Z,94185.69
2022-10-02T06:47:05.788Z,94183.31
2022-10-02T06:48:20.186Z,94191.91
2022-10-02T06:49:35.873Z,94186.44
2022-10-02T06:50:43.773Z,94185.25
2022-10-02T06:51:57.185Z,94188.88
2022-10-02T06:53:12.473Z,94183.66
2022-10-02T06:54:40.103Z,94184.69
2022-10-02T06:55:49.110Z,94177.06
2022-10-02T06:57:12.539Z,94181.72
2022-10-02T06:58:30.125Z,94182.94
2022-10-02T06:59:48.297Z,94184.22
2022-10-02T07:00:55.309Z,94187.72
2022-10-02T07:02:08.181Z,94188.25
2022-10-02T07:03:44.301Z,94181.78
2022-10-02T07:05:09.062Z,94177.38
2022-10-02T07:06:23.601Z,94185.03
2022-10-02T07:07:40.518Z,94176.56
2022-10-02T07:09:05.491Z,94179.63
2022-10-02T07:10:21.400Z,94175.88
2022-10-02T07:11:27.471Z,94174.97
2022-10-02T07:12:50.266Z,94171.91
2022-10-02T07:14:05.529Z,94165.16
2022-10-02T07:15:25.918Z,94168.22
2022-10-02T07:16:42.382Z,94165.66
2022-10-02T07:17:53.739Z,94164.44
2022-10-02T07:19:17.374Z,94161.06
2022-10-02T07:20:33.437Z,94162.63
2022-10-02T07:21:44.672Z,94167.16
2022-10-02T07:22:57.367Z,94162.69
2022-10-02T07:24:18.491Z,94167.50
2022-10-02T07:25:35.053Z,94158.00
2022-10-02T07:26:49.129Z,94163.34
2022-10-02T07:28:00.702Z,94150.84
2022-10-02T07:29:17.267Z,94154.84
2022-10-02T07:30:18.850Z,94156.38
2022-10-02T07:31:31.976Z,94159.88
2022-10-02T07:32:43.150Z,94152.09
2022-10-02T07:33:58.926Z,94155.59
2022-10-02T07:35:15.307Z,94154.69
2022-10-02T07:36:26.278Z,94152.13
2022-10-02T07:37:35.969Z,94149.97
2022-10-02T07:38:57.265Z,94146.28
2022-10-02T07:40:17.145Z,94144.66
2022-10-02T07:41:37.764Z,94148.16
2022-10-02T07:43:00.821Z,94150.59
2022-10-02T07:44:13.111Z,94146.78
2022-10-02T07:45:26.675Z,94143.72
2022-10-02T07:46:39.577Z,94138.25
2022-10-02T07:48:01.388Z,94126.44
2022-10-02T07:49:10.064Z,94131.53
2022-10-02T07:50:13.453Z,94127.03
2022-10-02T07:51:24.135Z,94124.88
2022-10-02T07:52:35.212Z,94127.28
2022-10-02T07:53:41.665Z,94124.41
2022-10-02T07:55:13.676Z,94129.38
2022-10-02T07:56:16.252Z,94116.88
2022-10-02T07:57:28.519Z,94114.63
2022-10-02T07:58:34.839Z,94120.16
2022-10-02T07:59:40.417Z,94123.25
2022-10-02T08:00:45.709Z,94117.09
2022-10-02T08:01:48.918Z,94113.06
2022-10-02T08:02:54.699Z,94118.94
2022-10-02T08:04:00.253Z,94110.59
2022-10-02T08:05:05.898Z,94108.34
2022-10-02T08:06:08.407Z,94109.59
2022-10-02T08:07:09.894Z,94105.50
2022-10-02T08:08:19.056Z,94103.03
2022-10-02T08:09:26.547Z,94104.06
2022-10-02T08:10:44.072Z,94110.34
2022-10-02T08:11:52.851Z,94116.72
2022-10-02T08:13:02.809Z,94113.00
2022-10-02T08:14:10.493Z,94105.28
2022-10-02T08:15:14.958Z,94111.00
2022-10-02T08:16:19.290Z,94109.75
2022-10-02T08:17:29.167Z,94103.84
2022-10-02T08:18:35.725Z,94107.91
2022-10-02T08:19:42.860Z,94110.09
2022-10-02T08:20:46.575Z,94114.38
2022-10-02T08:21:52.777Z,94107.63
2022-10-02T08:23:00.104Z,94107.81
2022-10-02T08:24:07.141Z,94103.28
2022-10-02T08:25:19.893Z,94106.06
2022-10-02T08:26:33.041Z,94103.06
2022-10-02T08:27:48.551Z,94112.75
2022-10-02T08:28:54.612Z,94110.78
2022-10-02T08:29:59.749Z,94108.78
2022-10-02T08:31:02.303Z,94108.88
2022-10-02T08:32:09.678Z,94102.50
2022-10-02T08:33:15.500Z,94098.53
2022-10-02T08:34:18.940Z,94101.75
2022-10-02T08:35:21.661Z,94106.03
2022-10-02T08:36:52.341Z,94104.66
2022-10-02T08:38:07.885Z,94097.97
2022-10-02T08:39:26.629Z,94100.84
2022-10-02T08:41:13.461Z,94093.34
2022-10-02T08:42:49.445Z,94095.69
2022-10-02T08:44:18.364Z,94093.03
2022-10-02T08:45:55.777Z,94089.75
2022-10-02T08:47:41.386Z,94089.84
2022-10-02T08:49:13.477Z,94084.03
2022-10-02T08:50:52.432Z,94082.66
2022-10-02T08:52:29.211Z,94081.63
2022-10-02T08:54:10.730Z,94078.66
2022-10-02T08:55:41.705Z,94080.06
2022-10-02T08:57:03.003Z,94087.63
2022-10-02T08:58:37.822Z,94077.84
2022-10-02T09:00:08.689Z,94090.09
2022-10-02T09:01:24.355Z,94089.56
2022-10-02T09:03:11.171Z,94084.66
2022-10-02T09:04:47.561Z,94097.25
2022-10-02T09:06:24.251Z,94088.34
2022-10-02T09:08:08.950Z,94085.41
2022-10-02T09:09:46.671Z,94087.69
2022-10-02T09:11:45.592Z,94078.59
2022-10-02T09:13:45.176Z,94075.56
2022-10-02T09:14:50.368Z,94064.72
2022-10-02T09:16:07.894Z,94071.47
2022-10-02T09:17:17.091Z,94060.38
2022-10-02T09:18:39.916Z,94063.13
2022-10-02T09:19:52.412Z,94071.94
2022-10-02T09:21:14.890Z,94064.03
2022-10-02T09:22:44.161Z,94062.28
2022-10-02T09:24:12.089Z,94068.13
2022-10-02T09:25:26.864Z,94067.47
2022-10-02T09:26:47.086Z,94069.69
2022-10-02T09:28:24.319Z,94066.06
2022-10-02T09:30:13.234Z,94066.91
2022-10-02T09:31:50.500Z,94064.25
2022-10-02T09:33:42.492Z,94061.53
2022-10-02T09:35:14.086Z,94067.19
2022-10-02T09:36:39.316Z,94057.41
2022-10-02T09:38:14.054Z,94049.47
2022-10-02T09:39:48.316Z,94046.56
2022-10-02T09:41:29.231Z,94051.91
2022-10-02T09:43:06.627Z,94050.00
2022-10-02T09:44:45.850Z,94050.25
2022-10-02T09:46:21.017Z,94046.53
2022-10-02T09:48:02.784Z,94049.59
2022-10-02T09:49:25.969Z,94055.38
2022-10-02T09:50:48.526Z,94042.34
2022-10-02T09:52:28.171Z,94046.97
2022-10-02T09:54:06.168Z,94041.66
2022-10-02T09:55:50.644Z,94038.84
2022-10-02T09:57:24.736Z,94023.47
2022-10-02T09:59:09.994Z,94039.94
2022-10-02T10:00:18.387Z,94032.31
2022-10-02T10:01:42.850Z,94021.44
2022-10-02T10:03:16.084Z,94030.47
2022-10-02T10:05:04.584Z,94027.06
2022-10-02T10:06:40.088Z,94028.28
2022-10-02T10:08:22.321Z,94033.88
2022-10-02T10:09:40.212Z,94014.69
2022-10-02T10:11:32.762Z,94021.31
2022-10-02T10:13:06.984Z,94033.25
2022-10-02T10:14:31.955Z,94031.97
2022-10-02T10:16:27.151Z,94025.72
2022-10-02T10:18:16.004Z,94029.84
2022-10-02T10:20:09.503Z,94025.09
2022-10-02T10:21:42.457Z,94051.03
2022-10-02T10:23:08.475Z,94035.19
2022-10-02T10:24:48.041Z,94032.25
2022-10-02T10:26:19.192Z,94048.84
2022-10-02T10:27:51.680Z,94048.09
2022-10-02T10:29:19.098Z,94040.03
2022-10-02T10:30:35.927Z,94029.88
2022-10-02T10:32:09.343Z,94038.25
2022-10-02T10:34:00.343Z,94028.84
2022-10-02T10:35:34.339Z,94027.19
2022-10-02T10:36:57.739Z,94021.66
2022-10-02T10:38:29.042Z,94025.53
2022-10-02T10:40:00.968Z,94019.81
2022-10-02T10:41:10.213Z,94019.44
2022-10-02T10:43:03.445Z,94023.75
2022-10-02T10:44:23.219Z,94026.88
2022-10-02T10:45:41.847Z,94036.84
2022-10-02T10:47:06.209Z,94036.75
2022-10-02T10:48:25.899Z,94027.47
2022-10-02T10:49:45.797Z,94029.91
2022-10-02T10:51:22.538Z,94038.16
2022-10-02T10:52:41.610Z,94044.19
2022-10-02T10:54:14.844Z,94030.75
2022-10-02T10:55:18.623Z,94029.81
2022-10-02T10:56:37.611Z,94030.94
2022-10-02T10:58:05.115Z,94029.56
2022-10-02T10:59:43.128Z,94024.56
2022-10-02T11:00:58.472Z,94037.78
2022-10-02T11:02:20.826Z,94036.78
2022-10-02T11:04:02.881Z,94032.81
2022-10-02T11:05:24.829Z,94040.78
2022-10-02T11:06:54.207Z,94026.22
2022-10-02T11:08:16.008Z,94031.09
2022-10-02T11:09:57.060Z,94037.81
2022-10-02T11:11:05.233Z,94034.78
2022-10-02T11:12:34.148Z,94038.63
2022-10-02T11:13:52.693Z,94044.19
2022-10-02T11:15:21.988Z,94029.44
2022-10-02T11:17:02.980Z,94034.50
2022-10-02T11:18:15.437Z,94037.34
2022-10-02T11:19:45.883Z,94040.19
2022-10-02T11:21:15.946Z,94034.78
2022-10-02T11:22:52.145Z,94029.16
2022-10-02T11:24:07.295Z,94037.38
2022-10-02T11:25:32.161Z,94041.09
2022-10-02T11:26:42.576Z,94031.81
2022-10-02T11:28:05.363Z,94042.66
2022-10-02T11:29:39.423Z,94038.34
2022-10-02T11:30:50.919Z,94014.38
2022-10-02T11:32:21.126Z,94023.19
2022-10-02T11:33:41.173Z,94014.72
2022-10-02T11:35:13.759Z,94011.72
2022-10-02T11:36:28.582Z,94023.63
2022-10-02T11:37:51.801Z,94019.19
2022-10-02T11:39:15.472Z,94018.44
2022-10-02T11:40:43.129Z,94014.88
2022-10-02T11:42:02.431Z,94023.19
2022-10-02T11:43:26.045Z,94019.16
2022-10-02T11:44:44.326Z,94029.16
2022-10-02T11:46:07.007Z,94023.66
2022-10-02T11:47:36.637Z,94023.03
2022-10-02T11:49:16.434Z,94019.75
2022-10-02T11:50:44.704Z,94014.81
2022-10-02T11:52:10.225Z,94015.94
2022-10-02T11:53:30.699Z,94013.88
2022-10-02T11:54:51.078Z,94018.22
2022-10-02T11:56:08.248Z,94003.63
2022-10-02T11:57:32.000Z,94016.13
2022-10-02T11:58:46.757Z,94011.25
2022-10-02T12:00:10.131Z,94006.66
2022-10-02T12:01:20.215Z,94009.44
2022-10-02T12:02:26.206Z,94016.28
2022-10-02T12:03:33.502Z,94007.47
2022-10-02T12:04:46.412Z,94006.66
2022-10-02T12:05:57.261Z,93999.44
2022-10-02T12:07:15.930Z,94006.84
2022-10-02T12:08:24.361Z,94005.25
2022-10-02T12:09:35.367Z,94002.97
2022-10-02T12:10:50.480Z,94004.97
2022-10-02T12:12:05.351Z,94009.84
2022-10-02T12:13:50.525Z,94007.50
2022-10-02T12:14:59.518Z,94006.59
2022-10-02T12:16:10.030Z,94003.91
2022-10-02T12:17:37.526Z,94003.19
2022-10-02T12:18:53.731Z,93999.75
2022-10-02T12:20:05.842Z,93999.50
2022-10-02T12:21:20.760Z,94004.38
2022-10-02T12:22:34.562Z,94002.75
2022-10-02T12:23:49.491Z,93998.78
2022-10-02T12:25:01.123Z,93996.03
2022-10-02T12:26:09.855Z,93999.28
2022-10-02T12:27:21.148Z,93999.72
2022-10-02T12:28:28.427Z,93994.50
2022-10-02T12:30:00.866Z,94002.50
2022-10-02T12:31:10.364Z,94003.44
2022-10-02T12:32:28.148Z,94012.03
2022-10-02T12:33:40.858Z,94002.84
2022-10-02T12:34:53.380Z,93996.13
2022-10-02T12:36:20.093Z,94001.22
2022-10-02T12:37:32.674Z,93998.94
2022-10-02T12:38:46.242Z,94001.84
2022-10-02T12:39:59.130Z,94004.38
2022-10-02T12:41:09.935Z,94000.53
2022-10-02T12:42:31.759Z,93999.03
2022-10-02T12:44:06.665Z,93999.97
2022-10-02T12:45:29.685Z,94003.56
2022-10-02T12:46:57.634Z,94007.06
2022-10-02T12:48:10.605Z,93998.56
2022-10-02T12:49:25.608Z,94008.06
2022-10-02T12:50:46.186Z,93998.13
2022-10-02T12:52:08.335Z,94002.03
2022-10-02T12:53:59.117Z,93995.53
2022-10-02T12:55:38.392Z,94000.16
2022-10-02T12:57:06.949Z,93992.03
2022-10-02T12:58:18.641Z,93991.25
2022-10-02T12:59:25.835Z,93994.84
2022-10-02T13:00:40.833Z,93994.13
2022-10-02T13:02:33.050Z,94000.19
2022-10-02T13:04:11.276Z,93998.78
2022-10-02T13:05:54.556Z,94004.56
2022-10-02T13:07:22.292Z,93995.66
2022-10-02T13:08:42.592Z,94007.72
2022-10-02T13:09:52.756Z,94007.25
2022-10-02T13:11:06.849Z,94013.75
2022-10-02T13:12:23.048Z,94019.88
2022-10-02T13:13:41.127Z,94008.91
2022-10-02T13:15:17.739Z,94017.47
2022-10-02T13:16:31.006Z,94021.09
2022-10-02T13:17:43.415Z,94017.88
2022-10-02T13:19:07.944Z,94016.59
2022-10-02T13:20:20.923Z,94024.72
2022-10-02T13:21:30.609Z,94025.97
2022-10-02T13:22:43.891Z,94020.66
2022-10-02T13:23:58.153Z,94018.59
2022-10-02T13:25:22.387Z,94020.22
2022-10-02T13:26:35.662Z,94017.38
2022-10-02T13:27:45.597Z,94019.63
2022-10-02T13:29:27.753Z,94016.09
2022-10-02T13:30:34.141Z,94021.44
2022-10-02T13:31:49.952Z,94024.94
2022-10-02T13:33:09.161Z,94030.75
2022-10-02T13:34:25.722Z,94028.75
2022-10-02T13:35:49.286Z,94021.19
2022-10-02T13:37:03.456Z,94023.06
2022-10-02T13:38:19.653Z,94024.31
2022-10-02T13:39:43.983Z,94023.00
2022-10-02T13:40:58.502Z,94031.25
2022-10-02T13:42:15.318Z,94033.00
2022-10-02T13:43:58.658Z,94022.28
2022-10-02T13:45:08.683Z,94025.56
2022-10-02T13:46:21.295Z,94021.41
2022-10-02T13:47:40.526Z,94021.84
2022-10-02T13:48:54.795Z,94019.63
2022-10-02T13:50:15.341Z,94025.06
2022-10-02T13:51:27.558Z,94023.31
2022-10-02T13:52:37.142Z,94026.38
2022-10-02T13:53:52.217Z,94024.72
2022-10-02T13:55:08.037Z,94023.66
2022-10-02T13:56:22.103Z,94020.28
2022-10-02T13:57:41.037Z,94035.31
2022-10-02T13:59:00.119Z,94039.69
2022-10-02T14:00:09.337Z,94037.69
2022-10-02T14:01:29.783Z,94025.22
2022-10-02T14:02:44.482Z,94034.34
2022-10-02T14:04:27.560Z,94044.63
2022-10-02T14:05:41.690Z,94048.69
2022-10-02T14:06:48.640Z,94037.47
2022-10-02T14:08:05.187Z,94046.66
2022-10-02T14:09:24.621Z,94050.19
2022-10-02T14:10:39.292Z,94055.50
2022-10-02T14:11:55.911Z,94040.75
2022-10-02T14:13:12.920Z,94049.00
2022-10-02T14:14:26.264Z,94062.44
2022-10-02T14:15:43.088Z,94041.19
2022-10-02T14:16:58.576Z,94035.31
2022-10-02T14:18:31.052Z,94041.22
2022-10-02T14:19:49.817Z,94046.31
2022-10-02T14:20:58.995Z,94039.00
2022-10-02T14:22:18.959Z,94048.31
2022-10-02T14:23:42.690Z,94045.09
2022-10-02T14:25:11.494Z,94044.88
2022-10-02T14:26:25.900Z,94058.50
2022-10-02T14:28:24.526Z,94053.59
2022-10-02T14:29:37.721Z,94065.44
2022-10-02T14:30:53.879Z,94062.78
2022-10-02T14:32:33.391Z,94060.06
2022-10-02T14:33:54.172Z,94060.88
2022-10-02T14:35:14.225Z,94059.44
2022-10-02T14:36:24.534Z,94062.94
2022-10-02T14:37:37.454Z,94059.00
2022-10-02T14:38:52.029Z,94061.41
2022-10-02T14:39:57.217Z,94072.25
2022-10-02T14:41:07.919Z,94083.88
2022-10-02T14:42:29.893Z,94070.22
2022-10-02T14:44:06.422Z,94067.50
2022-10-02T14:45:24.449Z,94057.78